sensor_id;sensor_type;location;lat;lon;timestamp;temperature;humidity
13673;DHT22;6909;52.202;9.876;2023-04-25T00:00:03;7.00;1.00
13673;DHT22;6909;52.202;9.876;2023-04-25T00:02:33;6.90;1.00
13673;DHT22;6909;52.202;9.876;2023-04-25T00:05:00;6.90;1.00
13673;DHT22;6909;52.202;9.876;2023-04-25T00:07:27;6.80;1.00
13673;DHT22;6909;52.202;9.876;2023-04-25T00:09:53;6.80;1.00
13673;DHT22;6909;52.202;9.876;2023-04-25T00:12:20;6.80;1.00
13673;DHT22;6909;52.202;9.876;2023-04-25T00:14:48;6.70;99.90
13673;DHT22;6909;52.202;9.876;2023-04-25T00:17:16;6.70;99.90
13673;DHT22;6909;52.202;9.876;2023-04-25T00:19:45;6.70;1.00
13673;DHT22;6909;52.202;9.876;2023-04-25T00:22:12;6.70;1.00
13673;DHT22;6909;52.202;9.876;2023-04-25T00:24:39;6.60;1.00
13673;DHT22;6909;52.202;9.876;2023-04-25T00:27:06;6.60;1.00
13673;DHT22;6909;52.202;9.876;2023-04-25T00:29:33;6.70;1.00
13673;DHT22;6909;52.202;9.876;2023-04-25T00:31:59;6.70;1.00
13673;DHT22;6909;52.202;9.876;2023-04-25T00:34:26;6.70;1.00
13673;DHT22;6909;52.202;9.876;2023-04-25T00:36:54;6.70;1.00
13673;DHT22;6909;52.202;9.876;2023-04-25T00:39:20;6.70;1.00
13673;DHT22;6909;52.202;9.876;2023-04-25T00:41:48;6.70;43.80
13673;DHT22;6909;52.202;9.876;2023-04-25T00:44:18;6.70;99.90
13673;DHT22;6909;52.202;9.876;2023-04-25T00:46:47;6.70;39.40
13673;DHT22;6909;52.202;9.876;2023-04-25T00:49:14;6.70;99.90
13673;DHT22;6909;52.202;9.876;2023-04-25T00:51:42;6.70;99.90
13673;DHT22;6909;52.202;9.876;2023-04-25T00:54:11;6.70;99.90
13673;DHT22;6909;52.202;9.876;2023-04-25T00:56:38;6.70;99.90
13673;DHT22;6909;52.202;9.876;2023-04-25T00:59:05;6.70;99.90
13673;DHT22;6909;52.202;9.876;2023-04-25T01:01:32;6.70;1.00
13673;DHT22;6909;52.202;9.876;2023-04-25T01:03:59;6.70;1.00
13673;DHT22;6909;52.202;9.876;2023-04-25T01:06:27;6.70;1.00
13673;DHT22;6909;52.202;9.876;2023-04-25T01:08:54;6.70;99.90
13673;DHT22;6909;52.202;9.876;2023-04-25T01:11:22;6.80;99.90
13673;DHT22;6909;52.202;9.876;2023-04-25T01:13:49;6.80;99.90
13673;DHT22;6909;52.202;9.876;2023-04-25T01:16:15;6.70;1.20
13673;DHT22;6909;52.202;9.876;2023-04-25T01:18:42;6.80;53.30
13673;DHT22;6909;52.202;9.876;2023-04-25T01:21:12;6.70;99.90
13673;DHT22;6909;52.202;9.876;2023-04-25T01:23:40;6.70;99.90
13673;DHT22;6909;52.202;9.876;2023-04-25T01:26:09;6.80;99.90
13673;DHT22;6909;52.202;9.876;2023-04-25T01:28:36;6.80;99.90
13673;DHT22;6909;52.202;9.876;2023-04-25T01:31:13;6.70;99.90
13673;DHT22;6909;52.202;9.876;2023-04-25T01:33:40;6.80;1.00
13673;DHT22;6909;52.202;9.876;2023-04-25T01:36:08;6.80;1.00
13673;DHT22;6909;52.202;9.876;2023-04-25T01:38:36;6.90;91.60
13673;DHT22;6909;52.202;9.876;2023-04-25T01:41:03;6.80;1.00
13673;DHT22;6909;52.202;9.876;2023-04-25T01:43:30;6.80;99.90
13673;DHT22;6909;52.202;9.876;2023-04-25T01:45:57;6.80;99.90
13673;DHT22;6909;52.202;9.876;2023-04-25T01:48:24;6.80;1.00
13673;DHT22;6909;52.202;9.876;2023-04-25T01:50:50;6.80;1.00
13673;DHT22;6909;52.202;9.876;2023-04-25T01:53:17;6.80;1.00
13673;DHT22;6909;52.202;9.876;2023-04-25T01:55:45;6.70;1.00
13673;DHT22;6909;52.202;9.876;2023-04-25T01:58:12;6.80;99.90
13673;DHT22;6909;52.202;9.876;2023-04-25T02:00:39;6.80;99.90
13673;DHT22;6909;52.202;9.876;2023-04-25T02:03:06;6.80;99.90
13673;DHT22;6909;52.202;9.876;2023-04-25T02:05:36;6.80;1.00
13673;DHT22;6909;52.202;9.876;2023-04-25T02:08:05;6.80;99.90
13673;DHT22;6909;52.202;9.876;2023-04-25T02:10:32;6.80;1.00
13673;DHT22;6909;52.202;9.876;2023-04-25T02:13:00;6.80;71.30
13673;DHT22;6909;52.202;9.876;2023-04-25T02:15:27;6.80;1.00
13673;DHT22;6909;52.202;9.876;2023-04-25T02:17:54;6.80;99.90
13673;DHT22;6909;52.202;9.876;2023-04-25T02:20:21;6.70;99.90
13673;DHT22;6909;52.202;9.876;2023-04-25T02:22:49;6.70;99.90
13673;DHT22;6909;52.202;9.876;2023-04-25T02:25:16;6.70;1.00
13673;DHT22;6909;52.202;9.876;2023-04-25T02:27:43;6.70;1.00
13673;DHT22;6909;52.202;9.876;2023-04-25T02:30:11;6.70;1.00
13673;DHT22;6909;52.202;9.876;2023-04-25T02:32:38;6.70;99.90
13673;DHT22;6909;52.202;9.876;2023-04-25T02:35:06;6.70;1.00
13673;DHT22;6909;52.202;9.876;2023-04-25T02:37:34;6.60;1.00
13673;DHT22;6909;52.202;9.876;2023-04-25T02:40:01;6.60;99.90
13673;DHT22;6909;52.202;9.876;2023-04-25T02:42:29;6.60;1.00
13673;DHT22;6909;52.202;9.876;2023-04-25T02:44:56;6.50;1.00
13673;DHT22;6909;52.202;9.876;2023-04-25T02:47:24;6.50;1.00
13673;DHT22;6909;52.202;9.876;2023-04-25T02:49:51;6.50;8.10
13673;DHT22;6909;52.202;9.876;2023-04-25T02:52:18;6.50;47.80
13673;DHT22;6909;52.202;9.876;2023-04-25T02:54:44;6.40;99.90
13673;DHT22;6909;52.202;9.876;2023-04-25T02:57:11;6.40;99.90
13673;DHT22;6909;52.202;9.876;2023-04-25T02:59:38;6.40;99.90
13673;DHT22;6909;52.202;9.876;2023-04-25T03:02:04;6.40;99.90
13673;DHT22;6909;52.202;9.876;2023-04-25T03:04:32;6.40;99.90
13673;DHT22;6909;52.202;9.876;2023-04-25T03:06:59;6.20;99.90
13673;DHT22;6909;52.202;9.876;2023-04-25T03:09:26;6.10;99.90
13673;DHT22;6909;52.202;9.876;2023-04-25T03:11:53;6.10;99.90
13673;DHT22;6909;52.202;9.876;2023-04-25T03:14:19;6.10;99.90
13673;DHT22;6909;52.202;9.876;2023-04-25T03:16:46;6.00;99.90
13673;DHT22;6909;52.202;9.876;2023-04-25T03:19:13;6.00;99.90
13673;DHT22;6909;52.202;9.876;2023-04-25T03:21:42;6.00;99.90
13673;DHT22;6909;52.202;9.876;2023-04-25T03:24:09;6.00;99.90
13673;DHT22;6909;52.202;9.876;2023-04-25T03:26:36;6.00;99.90
13673;DHT22;6909;52.202;9.876;2023-04-25T03:29:03;5.90;99.90
13673;DHT22;6909;52.202;9.876;2023-04-25T03:31:30;5.90;99.90
13673;DHT22;6909;52.202;9.876;2023-04-25T03:33:57;5.90;99.90
13673;DHT22;6909;52.202;9.876;2023-04-25T03:36:23;6.00;99.90
13673;DHT22;6909;52.202;9.876;2023-04-25T03:38:51;6.00;99.90
13673;DHT22;6909;52.202;9.876;2023-04-25T03:41:18;5.90;99.90
13673;DHT22;6909;52.202;9.876;2023-04-25T03:43:45;5.90;99.90
13673;DHT22;6909;52.202;9.876;2023-04-25T03:46:12;5.90;99.90
13673;DHT22;6909;52.202;9.876;2023-04-25T03:48:38;6.00;99.90
13673;DHT22;6909;52.202;9.876;2023-04-25T03:51:05;6.00;99.90
13673;DHT22;6909;52.202;9.876;2023-04-25T03:53:32;6.00;99.90
13673;DHT22;6909;52.202;9.876;2023-04-25T03:56:00;6.00;99.90
13673;DHT22;6909;52.202;9.876;2023-04-25T03:58:26;6.00;99.90
13673;DHT22;6909;52.202;9.876;2023-04-25T04:00:53;6.00;99.90
13673;DHT22;6909;52.202;9.876;2023-04-25T04:03:20;6.00;99.90
13673;DHT22;6909;52.202;9.876;2023-04-25T04:05:46;6.10;99.90
13673;DHT22;6909;52.202;9.876;2023-04-25T04:08:13;6.10;99.90
13673;DHT22;6909;52.202;9.876;2023-04-25T04:10:39;6.20;99.90
13673;DHT22;6909;52.202;9.876;2023-04-25T04:13:07;6.20;99.90
13673;DHT22;6909;52.202;9.876;2023-04-25T04:15:34;6.10;99.90
13673;DHT22;6909;52.202;9.876;2023-04-25T04:18:01;6.10;99.90
13673;DHT22;6909;52.202;9.876;2023-04-25T04:20:28;6.10;99.90
13673;DHT22;6909;52.202;9.876;2023-04-25T04:22:55;6.00;99.90
13673;DHT22;6909;52.202;9.876;2023-04-25T04:25:22;6.00;99.90
13673;DHT22;6909;52.202;9.876;2023-04-25T04:27:49;6.00;99.90
13673;DHT22;6909;52.202;9.876;2023-04-25T04:30:18;6.00;99.90
13673;DHT22;6909;52.202;9.876;2023-04-25T04:32:45;6.00;99.90
13673;DHT22;6909;52.202;9.876;2023-04-25T04:35:12;6.00;99.90
13673;DHT22;6909;52.202;9.876;2023-04-25T04:37:39;6.00;99.90
13673;DHT22;6909;52.202;9.876;2023-04-25T04:40:06;6.00;99.90
13673;DHT22;6909;52.202;9.876;2023-04-25T04:42:35;6.10;99.90
13673;DHT22;6909;52.202;9.876;2023-04-25T04:45:02;6.10;99.90
13673;DHT22;6909;52.202;9.876;2023-04-25T04:47:30;6.10;99.90
13673;DHT22;6909;52.202;9.876;2023-04-25T04:49:57;6.10;99.90
13673;DHT22;6909;52.202;9.876;2023-04-25T04:52:24;6.10;99.90
13673;DHT22;6909;52.202;9.876;2023-04-25T04:54:51;6.10;99.90
13673;DHT22;6909;52.202;9.876;2023-04-25T04:57:17;6.20;99.90
13673;DHT22;6909;52.202;9.876;2023-04-25T04:59:44;6.20;99.90
13673;DHT22;6909;52.202;9.876;2023-04-25T05:02:11;6.40;99.90
13673;DHT22;6909;52.202;9.876;2023-04-25T05:04:39;6.40;99.90
13673;DHT22;6909;52.202;9.876;2023-04-25T05:07:05;6.50;99.90
13673;DHT22;6909;52.202;9.876;2023-04-25T05:09:32;6.50;99.90
13673;DHT22;6909;52.202;9.876;2023-04-25T05:11:59;6.50;43.90
13673;DHT22;6909;52.202;9.876;2023-04-25T05:14:26;6.50;1.00
13673;DHT22;6909;52.202;9.876;2023-04-25T05:16:53;6.60;1.00
13673;DHT22;6909;52.202;9.876;2023-04-25T05:19:19;6.60;1.00
13673;DHT22;6909;52.202;9.876;2023-04-25T05:21:47;6.60;1.00
13673;DHT22;6909;52.202;9.876;2023-04-25T05:24:14;6.60;1.00
13673;DHT22;6909;52.202;9.876;2023-04-25T05:26:41;6.70;1.00
13673;DHT22;6909;52.202;9.876;2023-04-25T05:29:07;6.70;99.90
13673;DHT22;6909;52.202;9.876;2023-04-25T05:31:36;6.70;1.00
13673;DHT22;6909;52.202;9.876;2023-04-25T05:34:02;6.80;1.00
13673;DHT22;6909;52.202;9.876;2023-04-25T05:36:29;6.90;1.00
13673;DHT22;6909;52.202;9.876;2023-04-25T05:38:59;7.10;1.00
13673;DHT22;6909;52.202;9.876;2023-04-25T05:41:25;7.30;1.00
13673;DHT22;6909;52.202;9.876;2023-04-25T05:43:52;7.40;1.00
13673;DHT22;6909;52.202;9.876;2023-04-25T05:46:19;7.40;1.00
13673;DHT22;6909;52.202;9.876;2023-04-25T05:48:45;7.50;99.90
13673;DHT22;6909;52.202;9.876;2023-04-25T05:51:12;7.70;99.90
13673;DHT22;6909;52.202;9.876;2023-04-25T05:53:39;7.70;1.00
13673;DHT22;6909;52.202;9.876;2023-04-25T05:56:07;8.10;1.00
13673;DHT22;6909;52.202;9.876;2023-04-25T05:58:34;8.50;99.90
13673;DHT22;6909;52.202;9.876;2023-04-25T06:01:01;9.10;1.00
13673;DHT22;6909;52.202;9.876;2023-04-25T06:03:28;8.90;99.90
13673;DHT22;6909;52.202;9.876;2023-04-25T06:05:55;8.70;1.00
13673;DHT22;6909;52.202;9.876;2023-04-25T06:08:22;8.40;1.00
13673;DHT22;6909;52.202;9.876;2023-04-25T06:10:48;8.60;99.90
13673;DHT22;6909;52.202;9.876;2023-04-25T06:13:16;8.20;63.00
13673;DHT22;6909;52.202;9.876;2023-04-25T06:15:43;7.80;1.00
13673;DHT22;6909;52.202;9.876;2023-04-25T06:18:09;7.50;1.00
13673;DHT22;6909;52.202;9.876;2023-04-25T06:20:36;7.40;1.00
13673;DHT22;6909;52.202;9.876;2023-04-25T06:23:03;7.40;1.00
13673;DHT22;6909;52.202;9.876;2023-04-25T06:25:30;7.30;1.00
13673;DHT22;6909;52.202;9.876;2023-04-25T06:27:56;7.30;1.00
13673;DHT22;6909;52.202;9.876;2023-04-25T06:30:25;7.40;99.90
13673;DHT22;6909;52.202;9.876;2023-04-25T06:32:51;7.40;99.90
13673;DHT22;6909;52.202;9.876;2023-04-25T06:35:18;7.30;73.80
13673;DHT22;6909;52.202;9.876;2023-04-25T06:37:45;7.40;99.90
13673;DHT22;6909;52.202;9.876;2023-04-25T06:40:12;7.50;99.90
13673;DHT22;6909;52.202;9.876;2023-04-25T06:42:38;7.80;89.00
13673;DHT22;6909;52.202;9.876;2023-04-25T06:45:06;8.50;99.90
13673;DHT22;6909;52.202;9.876;2023-04-25T06:47:34;9.00;99.90
13673;DHT22;6909;52.202;9.876;2023-04-25T06:50:01;9.90;99.90
13673;DHT22;6909;52.202;9.876;2023-04-25T06:52:28;11.10;1.00
13673;DHT22;6909;52.202;9.876;2023-04-25T06:54:55;12.00;1.00
13673;DHT22;6909;52.202;9.876;2023-04-25T06:57:22;12.80;99.90
13673;DHT22;6909;52.202;9.876;2023-04-25T06:59:49;13.50;99.90
13673;DHT22;6909;52.202;9.876;2023-04-25T07:02:16;14.90;1.00
13673;DHT22;6909;52.202;9.876;2023-04-25T07:04:44;15.10;99.90
13673;DHT22;6909;52.202;9.876;2023-04-25T07:07:11;13.80;99.90
13673;DHT22;6909;52.202;9.876;2023-04-25T07:09:38;11.90;1.00
13673;DHT22;6909;52.202;9.876;2023-04-25T07:12:05;10.80;99.90
13673;DHT22;6909;52.202;9.876;2023-04-25T07:14:31;10.30;24.30
13673;DHT22;6909;52.202;9.876;2023-04-25T07:16:58;10.60;1.00
13673;DHT22;6909;52.202;9.876;2023-04-25T07:19:25;10.80;1.00
13673;DHT22;6909;52.202;9.876;2023-04-25T07:21:53;11.00;1.00
13673;DHT22;6909;52.202;9.876;2023-04-25T07:24:20;10.90;1.00
13673;DHT22;6909;52.202;9.876;2023-04-25T07:26:46;11.20;1.00
13673;DHT22;6909;52.202;9.876;2023-04-25T07:29:13;11.30;1.00
13673;DHT22;6909;52.202;9.876;2023-04-25T07:31:40;10.40;1.00
13673;DHT22;6909;52.202;9.876;2023-04-25T07:34:07;10.50;1.00
13673;DHT22;6909;52.202;9.876;2023-04-25T07:36:33;10.40;99.90
13673;DHT22;6909;52.202;9.876;2023-04-25T07:39:01;11.00;1.00
13673;DHT22;6909;52.202;9.876;2023-04-25T07:41:28;10.40;99.90
13673;DHT22;6909;52.202;9.876;2023-04-25T07:43:55;9.90;99.90
13673;DHT22;6909;52.202;9.876;2023-04-25T07:46:21;10.00;99.90
13673;DHT22;6909;52.202;9.876;2023-04-25T07:48:48;11.10;99.90
13673;DHT22;6909;52.202;9.876;2023-04-25T07:51:15;10.80;99.90
13673;DHT22;6909;52.202;9.876;2023-04-25T07:53:42;10.50;1.00
13673;DHT22;6909;52.202;9.876;2023-04-25T07:56:10;10.30;1.00
13673;DHT22;6909;52.202;9.876;2023-04-25T07:58:37;9.80;1.00
13673;DHT22;6909;52.202;9.876;2023-04-25T08:01:03;9.40;1.00
13673;DHT22;6909;52.202;9.876;2023-04-25T08:03:30;8.70;1.00
13673;DHT22;6909;52.202;9.876;2023-04-25T08:05:57;8.30;1.00
13673;DHT22;6909;52.202;9.876;2023-04-25T08:08:24;8.00;1.00
13673;DHT22;6909;52.202;9.876;2023-04-25T08:10:50;8.00;1.00
13673;DHT22;6909;52.202;9.876;2023-04-25T08:13:18;8.20;1.00
13673;DHT22;6909;52.202;9.876;2023-04-25T08:15:45;8.30;1.00
13673;DHT22;6909;52.202;9.876;2023-04-25T08:18:12;8.30;1.00
13673;DHT22;6909;52.202;9.876;2023-04-25T08:20:38;8.40;1.00
13673;DHT22;6909;52.202;9.876;2023-04-25T08:23:05;8.60;1.00
13673;DHT22;6909;52.202;9.876;2023-04-25T08:25:32;8.80;1.00
13673;DHT22;6909;52.202;9.876;2023-04-25T08:27:59;9.00;1.00
13673;DHT22;6909;52.202;9.876;2023-04-25T08:30:29;9.00;1.00
13673;DHT22;6909;52.202;9.876;2023-04-25T08:32:56;8.90;1.00
13673;DHT22;6909;52.202;9.876;2023-04-25T08:35:23;8.80;1.00
13673;DHT22;6909;52.202;9.876;2023-04-25T08:37:49;9.00;1.00
13673;DHT22;6909;52.202;9.876;2023-04-25T08:40:16;9.90;1.00
13673;DHT22;6909;52.202;9.876;2023-04-25T08:42:43;11.20;1.00
13673;DHT22;6909;52.202;9.876;2023-04-25T08:45:10;11.70;1.00
13673;DHT22;6909;52.202;9.876;2023-04-25T08:47:39;11.80;1.00
13673;DHT22;6909;52.202;9.876;2023-04-25T08:50:07;12.00;1.00
13673;DHT22;6909;52.202;9.876;2023-04-25T08:52:36;11.90;1.00
13673;DHT22;6909;52.202;9.876;2023-04-25T08:55:05;11.80;99.90
13673;DHT22;6909;52.202;9.876;2023-04-25T08:57:33;12.10;99.90
13673;DHT22;6909;52.202;9.876;2023-04-25T09:00:01;12.20;99.90
13673;DHT22;6909;52.202;9.876;2023-04-25T09:02:28;12.70;99.90
13673;DHT22;6909;52.202;9.876;2023-04-25T09:04:57;12.50;99.90
13673;DHT22;6909;52.202;9.876;2023-04-25T09:07:24;12.00;99.90
13673;DHT22;6909;52.202;9.876;2023-04-25T09:09:51;11.50;36.80
13673;DHT22;6909;52.202;9.876;2023-04-25T09:12:18;10.80;1.00
13673;DHT22;6909;52.202;9.876;2023-04-25T09:15:01;10.20;1.00
13673;DHT22;6909;52.202;9.876;2023-04-25T09:17:29;9.50;1.00
13673;DHT22;6909;52.202;9.876;2023-04-25T09:20:05;9.10;1.00
13673;DHT22;6909;52.202;9.876;2023-04-25T09:22:32;8.90;1.00
13673;DHT22;6909;52.202;9.876;2023-04-25T09:25:02;8.60;1.00
13673;DHT22;6909;52.202;9.876;2023-04-25T09:27:29;8.40;1.00
13673;DHT22;6909;52.202;9.876;2023-04-25T09:29:57;8.50;1.00
13673;DHT22;6909;52.202;9.876;2023-04-25T09:32:25;8.70;1.00
13673;DHT22;6909;52.202;9.876;2023-04-25T09:34:53;9.00;1.00
13673;DHT22;6909;52.202;9.876;2023-04-25T09:37:22;9.30;1.00
13673;DHT22;6909;52.202;9.876;2023-04-25T09:39:50;10.10;1.00
13673;DHT22;6909;52.202;9.876;2023-04-25T09:42:17;10.70;1.00
13673;DHT22;6909;52.202;9.876;2023-04-25T09:44:45;10.60;1.00
13673;DHT22;6909;52.202;9.876;2023-04-25T09:47:13;10.40;1.00
13673;DHT22;6909;52.202;9.876;2023-04-25T09:49:41;9.90;1.00
13673;DHT22;6909;52.202;9.876;2023-04-25T09:52:08;10.10;1.00
13673;DHT22;6909;52.202;9.876;2023-04-25T09:54:37;10.60;1.00
13673;DHT22;6909;52.202;9.876;2023-04-25T09:57:12;10.90;1.00
13673;DHT22;6909;52.202;9.876;2023-04-25T09:59:43;10.80;1.00
13673;DHT22;6909;52.202;9.876;2023-04-25T10:02:11;10.70;1.00
13673;DHT22;6909;52.202;9.876;2023-04-25T10:04:38;10.40;1.00
13673;DHT22;6909;52.202;9.876;2023-04-25T10:07:06;10.10;1.00
13673;DHT22;6909;52.202;9.876;2023-04-25T10:09:34;10.20;1.00
13673;DHT22;6909;52.202;9.876;2023-04-25T10:12:05;10.00;1.00
13673;DHT22;6909;52.202;9.876;2023-04-25T10:14:31;9.90;1.00
13673;DHT22;6909;52.202;9.876;2023-04-25T10:16:58;9.90;1.00
13673;DHT22;6909;52.202;9.876;2023-04-25T10:19:26;9.90;1.00
13673;DHT22;6909;52.202;9.876;2023-04-25T10:21:55;10.40;1.00
13673;DHT22;6909;52.202;9.876;2023-04-25T10:24:24;10.80;1.00
13673;DHT22;6909;52.202;9.876;2023-04-25T10:26:51;11.50;1.00
13673;DHT22;6909;52.202;9.876;2023-04-25T10:29:23;11.80;1.00
13673;DHT22;6909;52.202;9.876;2023-04-25T10:31:50;11.60;1.00
13673;DHT22;6909;52.202;9.876;2023-04-25T10:34:17;11.70;1.00
13673;DHT22;6909;52.202;9.876;2023-04-25T10:36:49;11.80;1.00
13673;DHT22;6909;52.202;9.876;2023-04-25T10:39:22;11.50;1.00
13673;DHT22;6909;52.202;9.876;2023-04-25T10:41:53;11.00;1.00
13673;DHT22;6909;52.202;9.876;2023-04-25T10:44:25;10.50;1.00
13673;DHT22;6909;52.202;9.876;2023-04-25T10:46:55;10.10;99.90
13673;DHT22;6909;52.202;9.876;2023-04-25T10:49:30;9.90;99.90
13673;DHT22;6909;52.202;9.876;2023-04-25T10:52:18;9.50;99.90
13673;DHT22;6909;52.202;9.876;2023-04-25T10:54:48;9.10;99.90
13673;DHT22;6909;52.202;9.876;2023-04-25T10:57:27;9.10;99.90
13673;DHT22;6909;52.202;9.876;2023-04-25T10:59:58;9.10;99.90
13673;DHT22;6909;52.202;9.876;2023-04-25T11:02:26;9.00;99.90
13673;DHT22;6909;52.202;9.876;2023-04-25T11:04:54;9.10;99.90
13673;DHT22;6909;52.202;9.876;2023-04-25T11:07:29;9.10;99.90
13673;DHT22;6909;52.202;9.876;2023-04-25T11:09:57;9.20;99.90
13673;DHT22;6909;52.202;9.876;2023-04-25T11:12:27;9.40;99.90
13673;DHT22;6909;52.202;9.876;2023-04-25T11:15:00;9.70;1.00
13673;DHT22;6909;52.202;9.876;2023-04-25T11:17:28;10.00;1.00
13673;DHT22;6909;52.202;9.876;2023-04-25T11:19:55;10.10;99.90
13673;DHT22;6909;52.202;9.876;2023-04-25T11:22:22;10.20;99.90
13673;DHT22;6909;52.202;9.876;2023-04-25T11:24:49;10.30;1.00
13673;DHT22;6909;52.202;9.876;2023-04-25T11:27:16;10.30;99.90
13673;DHT22;6909;52.202;9.876;2023-04-25T11:29:43;10.50;99.90
13673;DHT22;6909;52.202;9.876;2023-04-25T11:32:11;10.30;99.90
13673;DHT22;6909;52.202;9.876;2023-04-25T11:34:37;10.00;99.90
13673;DHT22;6909;52.202;9.876;2023-04-25T11:37:04;9.80;99.90
13673;DHT22;6909;52.202;9.876;2023-04-25T11:39:31;9.70;99.90
13673;DHT22;6909;52.202;9.876;2023-04-25T11:41:58;10.10;99.90
13673;DHT22;6909;52.202;9.876;2023-04-25T11:44:26;10.30;99.90
13673;DHT22;6909;52.202;9.876;2023-04-25T11:46:55;10.20;99.90
13673;DHT22;6909;52.202;9.876;2023-04-25T11:49:23;10.00;99.90
13673;DHT22;6909;52.202;9.876;2023-04-25T11:51:50;9.90;99.90
13673;DHT22;6909;52.202;9.876;2023-04-25T11:54:17;9.70;99.90
13673;DHT22;6909;52.202;9.876;2023-04-25T11:56:44;9.50;99.90
13673;DHT22;6909;52.202;9.876;2023-04-25T11:59:11;9.50;99.90
13673;DHT22;6909;52.202;9.876;2023-04-25T12:01:41;9.60;99.90
13673;DHT22;6909;52.202;9.876;2023-04-25T12:04:15;9.60;99.90
13673;DHT22;6909;52.202;9.876;2023-04-25T12:06:46;9.40;99.90
13673;DHT22;6909;52.202;9.876;2023-04-25T12:09:15;9.00;99.90
13673;DHT22;6909;52.202;9.876;2023-04-25T12:11:44;8.50;99.90
13673;DHT22;6909;52.202;9.876;2023-04-25T12:14:11;8.20;99.90
13673;DHT22;6909;52.202;9.876;2023-04-25T12:16:42;7.90;99.90
13673;DHT22;6909;52.202;9.876;2023-04-25T12:19:08;7.70;1.00
13673;DHT22;6909;52.202;9.876;2023-04-25T12:21:35;7.90;1.00
13673;DHT22;6909;52.202;9.876;2023-04-25T12:24:12;8.00;1.00
13673;DHT22;6909;52.202;9.876;2023-04-25T12:26:47;8.30;1.00
13673;DHT22;6909;52.202;9.876;2023-04-25T12:29:16;8.60;1.00
13673;DHT22;6909;52.202;9.876;2023-04-25T12:31:43;8.90;1.00
13673;DHT22;6909;52.202;9.876;2023-04-25T12:34:10;9.40;1.00
13673;DHT22;6909;52.202;9.876;2023-04-25T12:36:37;9.80;1.00
13673;DHT22;6909;52.202;9.876;2023-04-25T12:39:04;10.00;1.00
13673;DHT22;6909;52.202;9.876;2023-04-25T12:41:32;10.10;1.00
13673;DHT22;6909;52.202;9.876;2023-04-25T12:43:59;10.50;1.00
13673;DHT22;6909;52.202;9.876;2023-04-25T12:46:25;10.70;1.00
13673;DHT22;6909;52.202;9.876;2023-04-25T12:48:53;10.70;1.00
13673;DHT22;6909;52.202;9.876;2023-04-25T12:51:20;10.70;99.90
13673;DHT22;6909;52.202;9.876;2023-04-25T12:53:50;10.70;99.90
13673;DHT22;6909;52.202;9.876;2023-04-25T12:56:17;10.90;99.90
13673;DHT22;6909;52.202;9.876;2023-04-25T12:58:45;11.00;99.90
13673;DHT22;6909;52.202;9.876;2023-04-25T13:01:13;11.00;99.90
13673;DHT22;6909;52.202;9.876;2023-04-25T13:03:40;11.40;99.90
13673;DHT22;6909;52.202;9.876;2023-04-25T13:06:07;11.60;99.90
13673;DHT22;6909;52.202;9.876;2023-04-25T13:08:34;11.50;99.90
13673;DHT22;6909;52.202;9.876;2023-04-25T13:11:02;11.20;99.90
13673;DHT22;6909;52.202;9.876;2023-04-25T13:13:29;11.10;99.90
13673;DHT22;6909;52.202;9.876;2023-04-25T13:15:58;10.60;99.90
13673;DHT22;6909;52.202;9.876;2023-04-25T13:18:24;10.40;99.90
13673;DHT22;6909;52.202;9.876;2023-04-25T13:20:52;10.20;99.90
13673;DHT22;6909;52.202;9.876;2023-04-25T13:23:19;10.10;99.90
13673;DHT22;6909;52.202;9.876;2023-04-25T13:25:46;9.80;99.90
13673;DHT22;6909;52.202;9.876;2023-04-25T13:28:14;9.60;99.90
13673;DHT22;6909;52.202;9.876;2023-04-25T13:30:41;9.40;99.90
13673;DHT22;6909;52.202;9.876;2023-04-25T13:33:09;9.00;99.90
13673;DHT22;6909;52.202;9.876;2023-04-25T13:35:37;8.90;99.90
13673;DHT22;6909;52.202;9.876;2023-04-25T13:38:04;8.60;99.90
13673;DHT22;6909;52.202;9.876;2023-04-25T13:40:30;8.40;99.90
13673;DHT22;6909;52.202;9.876;2023-04-25T13:42:58;8.20;99.90
13673;DHT22;6909;52.202;9.876;2023-04-25T13:45:25;8.20;99.90
13673;DHT22;6909;52.202;9.876;2023-04-25T13:47:52;8.10;99.90
13673;DHT22;6909;52.202;9.876;2023-04-25T13:50:20;8.20;99.90
13673;DHT22;6909;52.202;9.876;2023-04-25T13:52:46;8.20;99.90
13673;DHT22;6909;52.202;9.876;2023-04-25T13:55:13;8.30;99.90
13673;DHT22;6909;52.202;9.876;2023-04-25T13:57:40;8.50;99.90
13673;DHT22;6909;52.202;9.876;2023-04-25T14:00:07;8.80;99.90
13673;DHT22;6909;52.202;9.876;2023-04-25T14:02:35;9.20;99.90
13673;DHT22;6909;52.202;9.876;2023-04-25T14:05:02;9.50;99.90
13673;DHT22;6909;52.202;9.876;2023-04-25T14:07:31;9.90;99.90
13673;DHT22;6909;52.202;9.876;2023-04-25T14:09:58;10.30;99.90
13673;DHT22;6909;52.202;9.876;2023-04-25T14:12:24;10.60;99.90
13673;DHT22;6909;52.202;9.876;2023-04-25T14:14:51;10.60;99.90
13673;DHT22;6909;52.202;9.876;2023-04-25T14:17:18;10.60;99.90
13673;DHT22;6909;52.202;9.876;2023-04-25T14:19:45;10.60;99.90
13673;DHT22;6909;52.202;9.876;2023-04-25T14:22:13;10.80;99.90
13673;DHT22;6909;52.202;9.876;2023-04-25T14:24:41;10.80;99.90
13673;DHT22;6909;52.202;9.876;2023-04-25T14:27:08;10.80;99.90
13673;DHT22;6909;52.202;9.876;2023-04-25T14:29:35;10.90;99.90
13673;DHT22;6909;52.202;9.876;2023-04-25T14:32:02;10.60;99.90
13673;DHT22;6909;52.202;9.876;2023-04-25T14:34:30;9.90;99.90
13673;DHT22;6909;52.202;9.876;2023-04-25T14:36:57;8.80;99.90
13673;DHT22;6909;52.202;9.876;2023-04-25T14:39:24;8.50;1.00
13673;DHT22;6909;52.202;9.876;2023-04-25T14:41:52;8.30;1.00
13673;DHT22;6909;52.202;9.876;2023-04-25T14:44:18;8.30;1.00
13673;DHT22;6909;52.202;9.876;2023-04-25T14:46:45;8.10;1.00
13673;DHT22;6909;52.202;9.876;2023-04-25T14:49:12;8.40;1.00
13673;DHT22;6909;52.202;9.876;2023-04-25T14:51:39;8.70;1.00
13673;DHT22;6909;52.202;9.876;2023-04-25T14:54:05;9.00;1.00
13673;DHT22;6909;52.202;9.876;2023-04-25T14:56:33;9.30;1.00
13673;DHT22;6909;52.202;9.876;2023-04-25T14:59:01;9.60;1.00
13673;DHT22;6909;52.202;9.876;2023-04-25T15:01:28;10.10;1.00
13673;DHT22;6909;52.202;9.876;2023-04-25T15:03:54;9.90;1.00
13673;DHT22;6909;52.202;9.876;2023-04-25T15:06:22;9.90;1.00
13673;DHT22;6909;52.202;9.876;2023-04-25T15:08:51;10.10;1.00
13673;DHT22;6909;52.202;9.876;2023-04-25T15:11:18;10.20;1.00
13673;DHT22;6909;52.202;9.876;2023-04-25T15:13:45;10.30;1.00
13673;DHT22;6909;52.202;9.876;2023-04-25T15:16:13;10.20;1.00
13673;DHT22;6909;52.202;9.876;2023-04-25T15:18:40;10.20;1.00
13673;DHT22;6909;52.202;9.876;2023-04-25T15:21:07;10.40;1.00
13673;DHT22;6909;52.202;9.876;2023-04-25T15:23:33;10.60;1.00
13673;DHT22;6909;52.202;9.876;2023-04-25T15:26:00;10.60;1.00
13673;DHT22;6909;52.202;9.876;2023-04-25T15:28:27;10.40;99.90
13673;DHT22;6909;52.202;9.876;2023-04-25T15:30:54;10.30;99.90
13673;DHT22;6909;52.202;9.876;2023-04-25T15:33:22;10.10;99.90
13673;DHT22;6909;52.202;9.876;2023-04-25T15:35:49;9.90;99.90
13673;DHT22;6909;52.202;9.876;2023-04-25T15:38:15;9.70;99.90
13673;DHT22;6909;52.202;9.876;2023-04-25T15:40:42;9.70;1.00
13673;DHT22;6909;52.202;9.876;2023-04-25T15:43:09;9.80;99.90
13673;DHT22;6909;52.202;9.876;2023-04-25T15:45:40;9.80;99.90
13673;DHT22;6909;52.202;9.876;2023-04-25T15:48:07;9.90;99.90
13673;DHT22;6909;52.202;9.876;2023-04-25T15:50:35;9.90;99.90
13673;DHT22;6909;52.202;9.876;2023-04-25T15:53:02;9.70;99.90
13673;DHT22;6909;52.202;9.876;2023-04-25T15:55:28;9.60;99.90
13673;DHT22;6909;52.202;9.876;2023-04-25T15:57:55;9.30;99.90
13673;DHT22;6909;52.202;9.876;2023-04-25T16:00:22;9.20;99.90
13673;DHT22;6909;52.202;9.876;2023-04-25T16:02:49;9.10;99.90
13673;DHT22;6909;52.202;9.876;2023-04-25T16:05:16;9.10;99.90